createdAt,value
2018-07-21T00:02:26.576Z,5.70
2018-07-21T00:04:55.446Z,5.77
2018-07-21T00:07:24.238Z,5.37
2018-07-21T00:09:53.016Z,5.70
2018-07-21T00:12:21.827Z,5.40
2018-07-21T00:14:50.557Z,5.40
2018-07-21T00:17:19.377Z,5.83
2018-07-21T00:19:48.149Z,5.67
2018-07-21T00:22:16.925Z,5.57
2018-07-21T00:24:45.668Z,5.37
2018-07-21T00:27:15.421Z,6.53
2018-07-21T00:29:44.368Z,6.30
2018-07-21T00:32:13.183Z,5.83
2018-07-21T00:34:41.992Z,5.87
2018-07-21T00:37:10.819Z,5.37
2018-07-21T00:39:39.649Z,5.87
2018-07-21T00:42:08.695Z,5.83
2018-07-21T00:44:37.614Z,6.20
2018-07-21T00:47:06.947Z,5.77
2018-07-21T00:49:35.690Z,5.70
2018-07-21T00:52:04.494Z,5.87
2018-07-21T00:54:33.240Z,5.80
2018-07-21T00:57:02.046Z,5.40
2018-07-21T00:59:30.821Z,5.87
2018-07-21T01:01:59.642Z,6.53
2018-07-21T01:04:28.454Z,6.20
2018-07-21T01:06:57.238Z,5.90
2018-07-21T01:09:25.997Z,5.53
2018-07-21T01:11:54.796Z,6.17
2018-07-21T01:14:23.691Z,6.30
2018-07-21T01:16:52.499Z,6.33
2018-07-21T01:19:21.306Z,6.57
2018-07-21T01:21:50.054Z,5.77
2018-07-21T01:24:18.814Z,5.83
2018-07-21T01:26:47.643Z,6.00
2018-07-21T01:29:16.439Z,6.10
2018-07-21T01:31:45.204Z,5.97
2018-07-21T01:34:14.016Z,6.33
2018-07-21T01:36:42.862Z,5.73
2018-07-21T01:39:12.478Z,5.83
2018-07-21T01:41:41.492Z,5.97
2018-07-21T01:44:10.276Z,5.77
2018-07-21T01:46:39.434Z,5.80
2018-07-21T01:49:08.280Z,6.63
2018-07-21T01:51:37.066Z,6.13
2018-07-21T01:54:05.945Z,6.13
2018-07-21T01:56:34.740Z,5.17
2018-07-21T01:59:03.540Z,5.70
2018-07-21T02:01:32.370Z,6.47
2018-07-21T02:04:01.149Z,6.43
2018-07-21T02:06:29.941Z,6.67
2018-07-21T02:08:58.731Z,6.33
2018-07-21T02:11:27.466Z,5.70
2018-07-21T02:13:56.273Z,6.40
2018-07-21T02:16:25.037Z,6.33
2018-07-21T02:18:53.799Z,6.67
2018-07-21T02:21:22.587Z,6.73
2018-07-21T02:23:51.389Z,7.00
2018-07-21T02:26:20.297Z,6.53
2018-07-21T02:28:49.079Z,6.07
2018-07-21T02:31:18.155Z,6.73
2018-07-21T02:33:46.950Z,6.30
2018-07-21T02:36:15.707Z,6.20
2018-07-21T02:38:44.474Z,6.87
2018-07-21T02:41:13.282Z,6.67
2018-07-21T02:43:42.034Z,6.73
2018-07-21T02:46:10.827Z,6.60
2018-07-21T02:48:39.585Z,6.13
2018-07-21T02:51:08.352Z,6.33
2018-07-21T02:53:37.105Z,5.47
2018-07-21T02:56:05.917Z,6.27
2018-07-21T02:58:34.674Z,6.50
2018-07-21T03:01:03.478Z,7.23
2018-07-21T03:03:32.247Z,6.90
2018-07-21T03:06:01.054Z,6.80
2018-07-21T03:08:29.804Z,6.53
2018-07-21T03:10:58.770Z,6.90
2018-07-21T03:13:27.570Z,6.90
2018-07-21T03:15:56.346Z,11.73
2018-07-21T03:18:25.128Z,8.80
2018-07-21T03:20:53.918Z,9.00
2018-07-21T03:23:22.712Z,8.23
2018-07-21T03:25:51.629Z,9.53
2018-07-21T03:28:20.460Z,8.13
2018-07-21T03:30:49.279Z,9.33
2018-07-21T03:33:18.217Z,9.03
2018-07-21T03:35:46.949Z,9.30
2018-07-21T03:38:15.806Z,9.00
2018-07-21T03:40:44.594Z,9.17
2018-07-21T03:43:13.347Z,9.70
2018-07-21T03:45:42.118Z,9.30
2018-07-21T03:48:10.871Z,8.93
2018-07-21T03:50:39.671Z,9.73
2018-07-21T03:53:08.462Z,9.20
2018-07-21T03:55:37.206Z,9.93
2018-07-21T03:58:06.182Z,9.47
2018-07-21T04:00:34.967Z,9.73
2018-07-21T04:03:04.019Z,9.67
2018-07-21T04:05:32.914Z,10.23
2018-07-21T04:08:01.715Z,10.77
2018-07-21T04:10:30.458Z,8.90
2018-07-21T04:12:59.218Z,9.87
2018-07-21T04:15:27.973Z,9.67
2018-07-21T04:17:56.753Z,10.47
2018-07-21T04:20:25.561Z,10.50
2018-07-21T04:22:54.305Z,9.47
2018-07-21T04:25:23.101Z,10.37
2018-07-21T04:27:52.013Z,10.60
2018-07-21T04:30:20.836Z,10.57
2018-07-21T04:32:49.614Z,11.03
2018-07-21T04:35:18.365Z,10.40
2018-07-21T04:37:49.911Z,10.27
2018-07-21T04:40:18.744Z,9.87
2018-07-21T04:42:47.503Z,11.30
2018-07-21T04:45:16.286Z,10.07
2018-07-21T04:47:45.146Z,9.87
2018-07-21T04:50:13.893Z,9.77
2018-07-21T04:52:42.738Z,10.10
2018-07-21T04:55:11.573Z,10.27
2018-07-21T04:57:40.327Z,10.20
2018-07-21T05:00:09.710Z,9.43
2018-07-21T05:02:38.468Z,9.83
2018-07-21T05:05:07.282Z,9.00
2018-07-21T05:07:36.060Z,9.43
2018-07-21T05:10:09.738Z,9.20
2018-07-21T05:12:38.793Z,9.23
2018-07-21T05:15:07.597Z,9.50
2018-07-21T05:17:36.480Z,30.63
2018-07-21T05:20:05.642Z,10.03
2018-07-21T05:22:34.579Z,9.63
2018-07-21T05:25:03.425Z,11.53
2018-07-21T05:27:32.356Z,9.50
2018-07-21T05:30:01.122Z,9.50
2018-07-21T05:32:29.880Z,8.67
2018-07-21T05:34:58.675Z,8.87
2018-07-21T05:37:27.537Z,8.97
2018-07-21T05:39:56.288Z,9.77
2018-07-21T05:42:25.082Z,9.17
2018-07-21T05:44:53.949Z,8.93
2018-07-21T05:47:22.831Z,8.97
2018-07-21T05:49:51.650Z,8.97
2018-07-21T05:52:20.405Z,9.60
2018-07-21T05:54:49.577Z,9.27
2018-07-21T05:57:18.399Z,8.80
2018-07-21T05:59:47.229Z,9.13
2018-07-21T06:02:15.976Z,8.87
2018-07-21T06:04:44.790Z,8.30
2018-07-21T06:07:13.557Z,8.27
2018-07-21T06:09:42.335Z,8.77
2018-07-21T06:12:11.157Z,8.57
2018-07-21T06:14:39.940Z,7.50
2018-07-21T06:17:08.834Z,7.37
2018-07-21T06:19:37.750Z,7.27
2018-07-21T06:22:06.481Z,6.67
2018-07-21T06:24:36.005Z,5.90
2018-07-21T06:27:05.246Z,5.93
2018-07-21T06:29:34.054Z,6.73
2018-07-21T06:32:02.878Z,6.00
2018-07-21T06:34:31.643Z,6.63
2018-07-21T06:37:00.423Z,5.87
2018-07-21T06:39:29.194Z,7.20
2018-07-21T06:41:57.966Z,7.30
2018-07-21T06:44:26.737Z,7.60
2018-07-21T06:46:55.466Z,6.53
2018-07-21T06:49:24.290Z,9.50
2018-07-21T06:51:53.116Z,6.23
2018-07-21T06:54:22.021Z,6.90
2018-07-21T06:56:50.865Z,7.47
2018-07-21T06:59:19.625Z,7.07
2018-07-21T07:01:48.426Z,6.97
2018-07-21T07:04:17.206Z,7.13
2018-07-21T07:06:46.608Z,7.77
2018-07-21T07:09:15.414Z,6.73
2018-07-21T07:11:44.189Z,6.80
2018-07-21T07:14:13.032Z,7.80
2018-07-21T07:16:41.818Z,6.57
2018-07-21T07:19:10.607Z,10.20
2018-07-21T07:21:39.410Z,7.60
2018-07-21T07:24:08.179Z,7.50
2018-07-21T07:26:37.014Z,7.23
2018-07-21T07:29:05.927Z,6.87
2018-07-21T07:31:34.711Z,6.97
2018-07-21T07:34:03.550Z,6.90
2018-07-21T07:36:32.363Z,6.60
2018-07-21T07:39:02.166Z,6.87
2018-07-21T07:41:30.928Z,6.30
2018-07-21T07:43:59.698Z,5.97
2018-07-21T07:46:28.481Z,7.30
2018-07-21T07:48:57.246Z,6.63
2018-07-21T07:51:26.027Z,6.97
2018-07-21T07:53:54.786Z,6.30
2018-07-21T07:56:23.527Z,6.63
2018-07-21T07:58:52.686Z,5.97
2018-07-21T08:01:21.633Z,6.77
2018-07-21T08:03:50.589Z,6.53
2018-07-21T08:06:19.445Z,7.40
2018-07-21T08:08:48.256Z,5.97
2018-07-21T08:11:17.131Z,6.63
2018-07-21T08:13:45.971Z,6.37
2018-07-21T08:16:14.738Z,7.10
2018-07-21T08:18:43.510Z,6.10
2018-07-21T08:21:12.301Z,6.50
2018-07-21T08:23:41.086Z,5.90
2018-07-21T08:26:09.913Z,6.10
2018-07-21T08:28:38.699Z,5.83
2018-07-21T08:31:07.502Z,5.17
2018-07-21T08:33:36.306Z,5.70
2018-07-21T08:36:05.267Z,5.60
2018-07-21T08:38:34.118Z,5.87
2018-07-21T08:41:06.597Z,5.80
2018-07-21T08:43:35.495Z,6.37
2018-07-21T08:46:04.650Z,6.03
2018-07-21T08:48:33.467Z,5.70
2018-07-21T08:51:02.249Z,6.17
2018-07-21T08:53:31.072Z,6.17
2018-07-21T08:55:59.882Z,6.90
2018-07-21T08:58:28.846Z,5.83
2018-07-21T09:00:57.606Z,5.47
2018-07-21T09:03:26.370Z,5.60
2018-07-21T09:05:55.129Z,6.13
2018-07-21T09:08:23.942Z,5.87
2018-07-21T09:10:52.705Z,5.70
2018-07-21T09:13:21.510Z,5.33
2018-07-21T09:15:50.262Z,5.50
2018-07-21T09:18:19.138Z,5.60
2018-07-21T09:20:48.044Z,6.37
2018-07-21T09:23:17.211Z,5.10
2018-07-21T09:25:45.982Z,5.23
2018-07-21T09:28:14.818Z,5.10
2018-07-21T09:30:44.164Z,4.90
2018-07-21T09:33:13.287Z,5.10
2018-07-21T09:35:42.089Z,5.70
2018-07-21T09:38:10.898Z,4.60
2018-07-21T09:40:39.658Z,5.30
2018-07-21T09:43:09.150Z,5.60
2018-07-21T09:45:38.028Z,5.43
2018-07-21T09:48:07.987Z,5.20
2018-07-21T09:50:36.998Z,4.20
2018-07-21T09:53:05.778Z,3.93
2018-07-21T09:55:34.638Z,5.00
2018-07-21T09:58:03.739Z,5.43
2018-07-21T10:00:37.809Z,5.10
2018-07-21T10:03:06.633Z,5.60
2018-07-21T10:05:35.412Z,4.73
2018-07-21T10:08:04.207Z,4.90
2018-07-21T10:10:33.021Z,4.83
2018-07-21T10:13:01.779Z,5.07
2018-07-21T10:15:31.728Z,5.73
2018-07-21T10:18:00.745Z,5.07
2018-07-21T10:20:29.587Z,4.87
2018-07-21T10:22:58.430Z,4.97
2018-07-21T10:25:32.468Z,4.70
2018-07-21T10:28:06.455Z,4.40
2018-07-21T10:30:35.462Z,4.60
2018-07-21T10:33:04.220Z,4.53
2018-07-21T10:35:33.031Z,4.60
2018-07-21T10:38:01.923Z,4.60
2018-07-21T10:40:30.945Z,4.40
2018-07-21T10:42:59.876Z,4.30
2018-07-21T10:45:28.650Z,4.30
2018-07-21T10:47:57.501Z,4.57
2018-07-21T10:50:26.418Z,4.80
2018-07-21T10:52:55.236Z,4.10
2018-07-21T10:55:24.026Z,4.33
2018-07-21T10:57:53.010Z,4.43
2018-07-21T11:00:22.452Z,4.80
2018-07-21T11:02:51.451Z,4.00
2018-07-21T11:05:20.253Z,3.90
2018-07-21T11:07:49.108Z,4.60
2018-07-21T11:10:17.875Z,4.10
2018-07-21T11:12:46.683Z,4.40
2018-07-21T11:15:15.897Z,4.43
2018-07-21T11:17:44.811Z,4.57
2018-07-21T11:20:13.787Z,4.03
2018-07-21T11:22:42.558Z,4.30
2018-07-21T11:25:11.747Z,4.30
2018-07-21T11:27:40.563Z,4.17
2018-07-21T11:30:09.485Z,4.30
2018-07-21T11:32:38.234Z,4.20
2018-07-21T11:35:07.554Z,4.00
2018-07-21T11:37:36.467Z,3.50
2018-07-21T11:40:05.761Z,4.27
2018-07-21T11:42:34.582Z,4.00
2018-07-21T11:45:03.396Z,5.27
2018-07-21T11:47:32.207Z,4.00
2018-07-21T11:50:01.078Z,3.93
2018-07-21T11:52:29.937Z,3.90
2018-07-21T11:54:58.804Z,4.13
2018-07-21T11:57:27.566Z,4.53
2018-07-21T11:59:56.362Z,3.83
2018-07-21T12:02:25.151Z,4.13
2018-07-21T12:04:53.941Z,4.27
2018-07-21T12:07:22.701Z,4.30
2018-07-21T12:09:51.495Z,4.00
2018-07-21T12:12:20.276Z,4.50
2018-07-21T12:14:49.279Z,4.37
2018-07-21T12:17:18.087Z,4.00
2018-07-21T12:19:46.995Z,4.90
2018-07-21T12:22:15.789Z,4.57
2018-07-21T12:24:44.589Z,4.70
2018-07-21T12:27:13.402Z,3.80
2018-07-21T12:29:42.244Z,4.17
2018-07-21T12:32:12.328Z,4.00
2018-07-21T12:34:41.228Z,4.70
2018-07-21T12:37:10.144Z,3.90
2018-07-21T12:39:38.866Z,3.50
2018-07-21T12:42:07.835Z,4.40
2018-07-21T12:44:36.650Z,3.80
2018-07-21T12:47:05.473Z,4.07
2018-07-21T12:49:34.254Z,4.10
2018-07-21T12:52:03.104Z,4.10
2018-07-21T12:54:31.912Z,4.10
2018-07-21T12:57:00.703Z,4.37
2018-07-21T12:59:29.462Z,4.87
2018-07-21T13:01:58.276Z,4.50
2018-07-21T13:04:27.164Z,4.63
2018-07-21T13:06:55.970Z,4.43
2018-07-21T13:09:24.788Z,4.13
2018-07-21T13:11:53.618Z,4.43
2018-07-21T13:14:22.466Z,3.80
2018-07-21T13:16:51.272Z,4.10
2018-07-21T13:19:20.006Z,4.60
2018-07-21T13:21:48.779Z,4.20
2018-07-21T13:24:17.627Z,4.37
2018-07-21T13:26:46.442Z,4.00
2018-07-21T13:29:15.241Z,4.40
2018-07-21T13:31:44.068Z,4.03
2018-07-21T13:34:13.056Z,3.40
2018-07-21T13:36:41.911Z,3.70
2018-07-21T13:39:12.199Z,4.20
2018-07-21T13:41:41.203Z,4.23
2018-07-21T13:44:10.164Z,3.83
2018-07-21T13:46:39.126Z,3.60
2018-07-21T13:49:08.331Z,4.10
2018-07-21T13:51:37.125Z,4.03
2018-07-21T13:54:05.997Z,3.87
2018-07-21T13:56:34.797Z,4.73
2018-07-21T13:59:03.644Z,4.00
2018-07-21T14:01:32.429Z,4.10
2018-07-21T14:04:01.229Z,4.60
2018-07-21T14:06:29.993Z,4.83
2018-07-21T14:08:58.761Z,4.60
2018-07-21T14:11:27.538Z,5.33
2018-07-21T14:13:56.472Z,5.57
2018-07-21T14:16:25.248Z,5.40
2018-07-21T14:18:54.155Z,5.53
2018-07-21T14:21:22.926Z,5.90
2018-07-21T14:23:51.703Z,6.40
2018-07-21T14:26:20.799Z,6.23
2018-07-21T14:28:49.603Z,6.23
2018-07-21T14:31:18.404Z,6.77
2018-07-21T14:33:47.204Z,7.70
2018-07-21T14:36:16.136Z,7.20
2018-07-21T14:38:44.954Z,7.90
2018-07-21T14:41:13.744Z,7.40
2018-07-21T14:43:42.488Z,7.40
2018-07-21T14:46:11.298Z,7.10
2018-07-21T14:48:40.150Z,7.90
2018-07-21T14:51:08.914Z,7.60
2018-07-21T14:53:37.711Z,7.83
2018-07-21T14:56:06.510Z,7.83
2018-07-21T14:58:35.345Z,7.53
2018-07-21T15:01:04.248Z,7.93
2018-07-21T15:03:33.073Z,7.27
2018-07-21T15:06:01.939Z,7.70
2018-07-21T15:08:30.694Z,7.97
2018-07-21T15:10:59.443Z,7.97
2018-07-21T15:13:28.223Z,7.73
2018-07-21T15:15:57.017Z,7.57
2018-07-21T15:18:25.807Z,7.50
2018-07-21T15:20:54.562Z,7.53
2018-07-21T15:23:23.340Z,7.73
2018-07-21T15:25:52.193Z,8.07
2018-07-21T15:28:21.058Z,7.43
2018-07-21T15:30:49.850Z,7.80
2018-07-21T15:33:18.629Z,7.57
2018-07-21T15:35:47.370Z,7.87
2018-07-21T15:38:16.524Z,8.00
2018-07-21T15:40:45.311Z,7.33
2018-07-21T15:43:14.109Z,7.50
2018-07-21T15:45:42.878Z,7.30
2018-07-21T15:48:12.302Z,7.30
2018-07-21T15:50:41.672Z,6.70
2018-07-21T15:53:10.453Z,6.97
2018-07-21T15:55:39.265Z,7.17
2018-07-21T15:58:08.070Z,6.40
2018-07-21T16:00:36.871Z,7.40
2018-07-21T16:03:05.660Z,6.70
2018-07-21T16:05:34.501Z,7.27
2018-07-21T16:08:03.614Z,7.30
2018-07-21T16:10:32.435Z,7.37
2018-07-21T16:13:01.210Z,7.60
2018-07-21T16:15:30.063Z,7.07
2018-07-21T16:17:58.821Z,6.77
2018-07-21T16:20:27.682Z,7.07
2018-07-21T16:22:56.470Z,6.80
2018-07-21T16:25:25.227Z,6.67
2018-07-21T16:27:54.086Z,6.80
2018-07-21T16:30:23.013Z,6.93
2018-07-21T16:32:51.793Z,7.33
2018-07-21T16:35:20.623Z,7.10
2018-07-21T16:37:49.433Z,7.37
2018-07-21T16:40:18.263Z,7.53
2018-07-21T16:42:47.205Z,7.30
2018-07-21T16:45:16.046Z,8.17
2018-07-21T16:47:44.816Z,7.27
2018-07-21T16:50:13.655Z,7.53
2018-07-21T16:52:42.433Z,7.07
2018-07-21T16:55:11.217Z,7.23
2018-07-21T16:57:40.018Z,7.13
2018-07-21T17:00:08.908Z,7.40
2018-07-21T17:02:37.807Z,7.03
2018-07-21T17:05:06.927Z,7.27
2018-07-21T17:07:35.695Z,7.30
2018-07-21T17:10:05.261Z,7.00
2018-07-21T17:12:34.343Z,7.17
2018-07-21T17:15:03.115Z,7.30
2018-07-21T17:17:31.974Z,6.60
2018-07-21T17:20:00.760Z,7.00
2018-07-21T17:22:29.521Z,7.17
2018-07-21T17:24:58.289Z,6.93
2018-07-21T17:27:27.042Z,6.63
2018-07-21T17:29:55.864Z,7.53
2018-07-21T17:32:24.804Z,7.37
2018-07-21T17:34:54.211Z,8.50
2018-07-21T17:37:22.946Z,7.57
2018-07-21T17:39:51.722Z,7.57
2018-07-21T17:42:20.482Z,7.80
2018-07-21T17:44:49.370Z,8.57
2018-07-21T17:47:18.286Z,8.10
2018-07-21T17:49:47.055Z,8.17
2018-07-21T17:52:16.197Z,8.40
2018-07-21T17:54:45.135Z,7.53
2018-07-21T17:57:13.934Z,7.97
2018-07-21T17:59:43.115Z,8.67
2018-07-21T18:02:11.883Z,8.27
2018-07-21T18:04:40.658Z,7.73
2018-07-21T18:07:09.701Z,8.43
2018-07-21T18:09:38.443Z,9.67
2018-07-21T18:12:07.281Z,8.40
2018-07-21T18:14:36.042Z,8.07
2018-07-21T18:17:04.854Z,8.73
2018-07-21T18:19:33.658Z,8.47
2018-07-21T18:22:02.462Z,8.00
2018-07-21T18:24:31.223Z,7.67
2018-07-21T18:27:00.090Z,7.90
2018-07-21T18:29:28.882Z,8.07
2018-07-21T18:31:57.667Z,7.87
2018-07-21T18:34:26.485Z,7.47
2018-07-21T18:36:55.364Z,8.30
2018-07-21T18:39:24.180Z,8.57
2018-07-21T18:41:52.967Z,8.87
2018-07-21T18:44:21.977Z,8.30
2018-07-21T18:46:50.762Z,7.90
2018-07-21T18:49:19.522Z,8.30
2018-07-21T18:51:48.282Z,8.40
2018-07-21T18:54:17.122Z,8.13
2018-07-21T18:56:45.917Z,8.20
2018-07-21T18:59:14.778Z,7.63
2018-07-21T19:01:43.810Z,10.83
2018-07-21T19:04:12.649Z,13.40
2018-07-21T19:06:41.464Z,8.63
2018-07-21T19:09:10.575Z,10.90
2018-07-21T19:11:39.387Z,7.83
2018-07-21T19:14:08.133Z,8.07
2018-07-21T19:16:38.381Z,8.30
2018-07-21T19:19:07.209Z,8.47
2018-07-21T19:21:36.094Z,7.80
2018-07-21T19:24:05.066Z,7.47
2018-07-21T19:26:39.161Z,7.63
2018-07-21T19:29:07.920Z,7.70
2018-07-21T19:31:38.529Z,7.43
2018-07-21T19:34:07.443Z,7.70
2018-07-21T19:36:36.283Z,7.70
2018-07-21T19:39:06.562Z,8.00
2018-07-21T19:41:40.780Z,8.23
2018-07-21T19:44:09.563Z,7.43
2018-07-21T19:46:38.362Z,7.83
2018-07-21T19:49:07.132Z,7.27
2018-07-21T19:51:35.962Z,7.00
2018-07-21T19:54:04.762Z,7.00
2018-07-21T19:56:33.618Z,7.60
2018-07-21T19:59:02.613Z,7.10
2018-07-21T20:01:31.386Z,7.10
2018-07-21T20:04:00.296Z,7.27
2018-07-21T20:06:29.083Z,7.50
2018-07-21T20:08:57.850Z,6.97
2018-07-21T20:11:26.631Z,6.63
2018-07-21T20:13:55.509Z,7.20
2018-07-21T20:16:24.638Z,6.73
2018-07-21T20:18:53.393Z,6.57
2018-07-21T20:21:22.296Z,6.93
2018-07-21T20:23:51.204Z,8.10
2018-07-21T20:26:20.011Z,10.37
2018-07-21T20:28:48.790Z,10.03
2018-07-21T20:31:17.588Z,10.87
2018-07-21T20:33:46.378Z,11.80
2018-07-21T20:36:15.169Z,11.63
2018-07-21T20:38:43.961Z,11.17
2018-07-21T20:41:12.856Z,10.67
2018-07-21T20:43:41.675Z,10.57
2018-07-21T20:46:10.573Z,11.63
2018-07-21T20:48:39.412Z,12.10
2018-07-21T20:51:08.398Z,12.13
2018-07-21T20:53:37.164Z,11.13
2018-07-21T20:56:06.215Z,12.03
2018-07-21T20:58:34.998Z,11.77
2018-07-21T21:01:03.853Z,11.70
2018-07-21T21:03:32.647Z,11.63
2018-07-21T21:06:01.372Z,12.23
2018-07-21T21:08:30.188Z,10.83
2018-07-21T21:11:06.644Z,10.90
2018-07-21T21:13:35.669Z,10.40
2018-07-21T21:16:04.503Z,11.60
2018-07-21T21:18:33.335Z,11.30
2018-07-21T21:21:02.168Z,11.87
2018-07-21T21:23:30.986Z,12.50
2018-07-21T21:26:06.753Z,10.93
2018-07-21T21:28:35.571Z,11.57
2018-07-21T21:31:04.365Z,11.17
2018-07-21T21:33:33.138Z,11.33
2018-07-21T21:36:01.984Z,11.40
2018-07-21T21:38:30.770Z,10.23
2018-07-21T21:40:59.594Z,10.60
2018-07-21T21:43:28.397Z,10.97
2018-07-21T21:45:57.246Z,10.67
2018-07-21T21:48:26.133Z,11.43
2018-07-21T21:50:55.134Z,10.67
2018-07-21T21:53:23.931Z,11.60
2018-07-21T21:55:52.771Z,10.83
2018-07-21T21:58:21.553Z,11.93
2018-07-21T22:01:19.556Z,12.93
2018-07-21T22:03:48.335Z,10.60
2018-07-21T22:06:17.471Z,10.73
2018-07-21T22:08:46.331Z,11.70
2018-07-21T22:11:15.110Z,12.43
2018-07-21T22:13:43.945Z,10.20
2018-07-21T22:16:12.790Z,10.53
2018-07-21T22:18:41.562Z,10.50
2018-07-21T22:21:10.386Z,11.20
2018-07-21T22:23:39.176Z,10.37
2018-07-21T22:26:07.994Z,9.83
2018-07-21T22:28:37.186Z,10.70
2018-07-21T22:31:05.963Z,10.43
2018-07-21T22:33:34.990Z,11.73
2018-07-21T22:36:03.826Z,11.87
2018-07-21T22:38:32.977Z,13.37
2018-07-21T22:41:01.798Z,12.07
2018-07-21T22:43:30.592Z,10.33
2018-07-21T22:45:59.514Z,12.30
2018-07-21T22:48:28.264Z,12.13
2018-07-21T22:50:57.067Z,12.07
2018-07-21T22:53:25.822Z,11.43
2018-07-21T22:55:54.575Z,10.73
2018-07-21T22:58:23.342Z,12.63
2018-07-21T23:00:52.184Z,12.57
2018-07-21T23:03:21.383Z,11.03
2018-07-21T23:05:50.186Z,12.03
2018-07-21T23:08:18.994Z,11.60
2018-07-21T23:10:47.762Z,10.87
2018-07-21T23:13:16.574Z,11.30
2018-07-21T23:15:45.337Z,11.90
2018-07-21T23:18:14.168Z,12.23
2018-07-21T23:20:42.989Z,11.40
2018-07-21T23:23:10.721Z,11.60
2018-07-21T23:25:39.549Z,10.53
2018-07-21T23:28:08.358Z,11.20
2018-07-21T23:30:37.164Z,11.33
2018-07-21T23:33:05.951Z,10.57
2018-07-21T23:35:34.717Z,11.27
2018-07-21T23:38:03.497Z,10.73
2018-07-21T23:40:32.315Z,11.60
2018-07-21T23:43:01.113Z,10.70
2018-07-21T23:45:29.883Z,11.37
2018-07-21T23:47:58.636Z,11.10
2018-07-21T23:50:27.469Z,11.90
2018-07-21T23:52:56.254Z,11.40
2018-07-21T23:55:25.131Z,11.03
2018-07-21T23:57:54.246Z,12.53
